Hlavní strana
METAR-TAF:

METAR-TAF

Letiště :

Jackson, Tennessee, Spojené státy americké

zeměpisná šířka: 35-35-35N, zeměpisná délka: 088-55-00W, výška: 132 m

Aktuální stav počasí

Zpráva byla vytvořena před 44 minutami, v 00:53 UTC
Bezvětří
Teplota 6°C
Vlhkost vzduchu 56%
Tlak 1022 hPa
Viditelnost: 16.1 km
Jasno

METAR: KMKL 220053Z AUTO 00000KT 10SM CLR 06/M02 A3019 RMK AO2 SLP224 T00611017

Čas: 20:37 (01:37 UTC)

Předpověď počasí

Zpráva byla vytvořena před 2 hodinami a 6 minutami, v 23:31 UTC
Předpověď platná od 22 v 00 UTC do 22 v 24 UTC
vítr z různých směrů 4 kt
Viditelnost: 10 km
Skoro jasno ve výšce 25000 ft
Od 22 v 1500 UTC
Severoseverozápadní vítr 7 kt
Viditelnost: 10 km
Polojasno ve výšce 6000 ft
Polojasno ve výšce 25000 ft

TAF: KMKL 212331Z 2200/2224 VRB04KT P6SM FEW250 FM221500 33007KT P6SM SCT060 SCT250

Stav a předpovědi počasí z více než 4 000 letišť (zprávy METAR a TAF).

Červené a žluté tečky na mapě představují dostupné meteorologické stanice.

Když kurzor umístíte na tečku, zobrazí se název stanice.

Pak kliknutím zobrazíte stav a předpověď počasí.

Chcete-li změnit mapu, kliknutím na zelené tlačítko se znaménkem +mapu přiblížíte, kliknutím na zelené tlačítko se znaménkem – mapu oddálíte a kliknutím na zelené šipky přejdete na sousední mapy.


METAR-TAF: